createdAt,value
2023-02-01T00:00:04.181Z,0.30
2023-02-01T00:04:47.054Z,0.40
2023-02-01T00:08:58.878Z,0.30
2023-02-01T00:13:03.897Z,0.40
2023-02-01T00:17:09.116Z,0.40
2023-02-01T00:21:13.813Z,0.40
2023-02-01T00:26:10.600Z,0.40
2023-02-01T00:30:25.782Z,0.40
2023-02-01T00:34:31.377Z,0.40
2023-02-01T00:39:02.095Z,0.40
2023-02-01T00:43:09.474Z,0.30
2023-02-01T00:47:16.675Z,0.40
2023-02-01T00:51:25.051Z,0.30
2023-02-01T00:55:30.228Z,0.30
2023-02-01T00:59:57.102Z,0.20
2023-02-01T01:04:25.625Z,0.30
2023-02-01T01:08:30.179Z,0.30
2023-02-01T01:22:58.905Z,0.50
2023-02-01T01:27:04.481Z,0.50
2023-02-01T01:31:11.824Z,0.50
2023-02-01T01:35:17.405Z,0.50
2023-02-01T01:39:24.734Z,0.60
2023-02-01T01:44:01.738Z,0.60
2023-02-01T01:48:38.846Z,0.60
2023-02-01T01:52:57.472Z,0.70
2023-02-01T01:57:23.389Z,0.60
2023-02-01T02:01:45.759Z,0.70
2023-02-01T02:06:06.330Z,0.70
2023-02-01T02:10:18.437Z,0.60
2023-02-01T02:14:34.318Z,0.60
2023-02-01T02:19:20.153Z,0.60
2023-02-01T02:29:44.835Z,0.70
2023-02-01T02:34:18.137Z,0.60
2023-02-01T02:48:30.410Z,0.50
2023-02-01T02:57:44.832Z,0.40
2023-02-01T03:02:06.720Z,0.30
2023-02-01T03:10:57.690Z,0.40
2023-02-01T03:15:16.732Z,0.40
2023-02-01T03:19:26.038Z,0.50
2023-02-01T03:23:33.574Z,0.40
2023-02-01T03:27:53.743Z,0.50
2023-02-01T03:31:57.703Z,0.50
2023-02-01T03:36:30.339Z,0.50
2023-02-01T03:40:38.883Z,0.50
2023-02-01T03:44:54.133Z,0.50
2023-02-01T03:48:58.263Z,0.50
2023-02-01T03:54:07.075Z,0.60
2023-02-01T03:58:14.938Z,0.60
2023-02-01T04:02:20.824Z,0.50
2023-02-01T04:06:24.270Z,0.60
2023-02-01T04:16:10.665Z,0.60
2023-02-01T04:20:15.439Z,0.70
2023-02-01T04:24:21.914Z,0.70
2023-02-01T04:28:25.192Z,0.70
2023-02-01T04:32:28.559Z,0.70
2023-02-01T04:36:33.741Z,0.80
2023-02-01T04:40:45.277Z,0.70
2023-02-01T04:44:48.885Z,0.70
2023-02-01T04:48:52.434Z,0.70
2023-02-01T04:52:57.203Z,0.80
2023-02-01T04:57:53.745Z,0.80
2023-02-01T05:01:57.060Z,0.80
2023-02-01T05:06:29.229Z,0.80
2023-02-01T05:10:34.051Z,0.80
2023-02-01T05:14:40.586Z,0.80
2023-02-01T05:18:48.494Z,0.80
2023-02-01T05:22:52.009Z,0.80
2023-02-01T05:28:03.821Z,0.80
2023-02-01T05:32:21.680Z,0.80
2023-02-01T05:36:28.965Z,0.80
2023-02-01T05:40:50.688Z,0.80
2023-02-01T05:44:54.160Z,0.80
2023-02-01T05:49:26.581Z,0.90
2023-02-01T05:53:29.978Z,0.90
2023-02-01T05:57:33.470Z,0.90
2023-02-01T06:01:36.870Z,0.90
2023-02-01T06:05:45.941Z,0.90
2023-02-01T06:09:49.284Z,0.90
2023-02-01T06:14:00.228Z,1.00
2023-02-01T06:19:03.845Z,0.90
2023-02-01T06:23:08.614Z,1.00
2023-02-01T06:27:16.389Z,0.90
2023-02-01T06:31:19.807Z,0.90
2023-02-01T06:35:50.987Z,0.90
2023-02-01T06:39:55.793Z,0.90
2023-02-01T06:44:03.460Z,0.90
2023-02-01T06:48:07.447Z,0.90
2023-02-01T06:52:10.919Z,0.90
2023-02-01T06:56:15.749Z,0.90
2023-02-01T07:00:24.539Z,0.90
2023-02-01T07:04:28.087Z,0.90
2023-02-01T07:08:33.811Z,0.90
2023-02-01T07:12:38.718Z,1.00
2023-02-01T07:16:42.023Z,1.00
2023-02-01T07:21:13.475Z,0.90
2023-02-01T07:25:17.011Z,0.90
2023-02-01T07:29:23.975Z,0.90
2023-02-01T07:33:28.212Z,0.90
2023-02-01T07:37:33.956Z,1.00
2023-02-01T07:41:37.310Z,1.00
2023-02-01T07:45:44.264Z,1.10
2023-02-01T07:49:47.926Z,1.10
2023-02-01T07:53:54.734Z,1.10
2023-02-01T07:58:01.296Z,1.20
2023-02-01T08:02:08.679Z,1.30
2023-02-01T08:06:12.314Z,1.30
2023-02-01T08:10:33.141Z,1.40
2023-02-01T08:14:36.533Z,1.30
2023-02-01T08:18:42.329Z,1.30
2023-02-01T08:22:49.529Z,1.20
2023-02-01T08:26:53.034Z,1.40
2023-02-01T08:30:57.752Z,1.40
2023-02-01T08:35:02.790Z,1.30
2023-02-01T08:39:12.624Z,1.50
2023-02-01T08:43:16.423Z,1.60
2023-02-01T08:47:20.214Z,1.60
2023-02-01T08:51:25.836Z,1.50
2023-02-01T08:55:30.415Z,1.60
2023-02-01T08:59:34.088Z,1.60
2023-02-01T09:03:38.344Z,1.60
2023-02-01T09:07:43.437Z,1.70
2023-02-01T09:11:49.153Z,1.70
2023-02-01T09:15:53.499Z,1.80
2023-02-01T09:19:57.170Z,1.90
2023-02-01T09:24:02.369Z,2.10
2023-02-01T09:28:07.248Z,2.20
2023-02-01T09:32:17.197Z,2.20
2023-02-01T09:36:21.029Z,2.20
2023-02-01T09:41:06.797Z,2.40
2023-02-01T09:45:25.162Z,2.40
2023-02-01T09:49:31.886Z,2.60
2023-02-01T09:53:38.856Z,2.60
2023-02-01T10:03:26.895Z,2.30
2023-02-01T10:13:37.870Z,2.10
2023-02-01T10:18:17.062Z,2.20
2023-02-01T10:23:10.343Z,2.20
2023-02-01T10:27:16.058Z,2.00
2023-02-01T10:31:20.636Z,2.00
2023-02-01T10:39:50.139Z,2.00
2023-02-01T10:44:02.841Z,2.00
2023-02-01T10:48:07.350Z,1.90
2023-02-01T10:52:17.783Z,2.00
2023-02-01T10:56:45.393Z,1.90
2023-02-01T11:00:51.537Z,2.00
2023-02-01T11:05:17.431Z,2.10
2023-02-01T11:09:25.523Z,2.20
2023-02-01T11:13:37.056Z,2.50
2023-02-01T11:17:45.086Z,2.30
2023-02-01T11:21:53.390Z,2.40
2023-02-01T11:25:59.095Z,2.70
2023-02-01T11:30:37.163Z,2.80
2023-02-01T11:34:44.098Z,2.70
2023-02-01T11:38:55.338Z,2.60
2023-02-01T11:43:01.094Z,2.40
2023-02-01T11:47:30.777Z,2.20
2023-02-01T11:52:16.651Z,2.60
2023-02-01T11:56:28.835Z,3.10
2023-02-01T12:01:04.321Z,3.20
2023-02-01T12:05:39.675Z,3.40
2023-02-01T12:10:15.439Z,3.50
2023-02-01T12:15:13.562Z,3.60
2023-02-01T12:19:46.185Z,3.60
2023-02-01T12:24:41.516Z,3.80
2023-02-01T12:29:03.686Z,3.90
2023-02-01T12:33:33.060Z,4.10
2023-02-01T12:37:59.805Z,4.20
2023-02-01T12:42:13.024Z,4.30
2023-02-01T12:46:30.967Z,3.90
2023-02-01T12:50:48.239Z,3.70
2023-02-01T12:55:05.101Z,3.70
2023-02-01T12:59:18.981Z,3.70
2023-02-01T13:03:36.603Z,3.80
2023-02-01T13:07:43.276Z,3.70
2023-02-01T13:11:51.668Z,3.70
2023-02-01T13:16:14.310Z,3.60
2023-02-01T13:20:47.297Z,3.60
2023-02-01T13:24:54.647Z,3.60
2023-02-01T13:29:17.967Z,3.60
2023-02-01T13:33:53.932Z,3.60
2023-02-01T13:38:25.018Z,3.70
2023-02-01T13:42:31.188Z,3.80
2023-02-01T13:46:43.679Z,4.00
2023-02-01T13:51:00.944Z,4.00
2023-02-01T13:55:28.997Z,3.90
2023-02-01T13:59:53.684Z,3.90
2023-02-01T14:03:59.211Z,3.70
2023-02-01T14:08:12.226Z,3.60
2023-02-01T14:12:54.901Z,3.40
2023-02-01T14:17:41.083Z,3.20
2023-02-01T14:21:57.915Z,3.10
2023-02-01T14:26:08.707Z,3.10
2023-02-01T14:30:18.450Z,2.90
2023-02-01T14:34:27.329Z,2.80
2023-02-01T14:38:36.725Z,2.60
2023-02-01T14:42:45.826Z,2.50
2023-02-01T14:47:33.079Z,2.50
2023-02-01T14:51:37.780Z,2.50
2023-02-01T14:56:32.439Z,2.40
2023-02-01T15:00:37.498Z,2.30
2023-02-01T15:04:44.209Z,2.30
2023-02-01T15:08:48.061Z,2.10
2023-02-01T15:12:51.620Z,2.10
2023-02-01T15:16:56.405Z,2.10
2023-02-01T15:21:09.375Z,2.00
2023-02-01T15:25:49.138Z,1.90
2023-02-01T15:30:44.603Z,1.80
2023-02-01T15:34:50.951Z,1.80
2023-02-01T15:39:21.149Z,1.80
2023-02-01T15:44:06.903Z,1.80
2023-02-01T15:48:24.432Z,1.70
2023-02-01T15:52:41.742Z,1.60
2023-02-01T15:56:45.153Z,1.50
2023-02-01T16:00:55.685Z,1.50
2023-02-01T16:04:59.608Z,1.50
2023-02-01T16:09:12.868Z,1.40
2023-02-01T16:13:17.656Z,1.40
2023-02-01T16:17:21.112Z,1.50
2023-02-01T16:21:24.453Z,1.40
2023-02-01T16:25:29.280Z,1.40
2023-02-01T16:29:32.540Z,1.40
2023-02-01T16:33:37.449Z,1.50
2023-02-01T16:37:40.748Z,1.50
2023-02-01T16:41:52.957Z,1.50
2023-02-01T16:46:01.178Z,1.50
2023-02-01T16:50:23.681Z,1.40
2023-02-01T16:54:39.905Z,1.50
2023-02-01T16:58:45.128Z,1.40
2023-02-01T17:02:48.436Z,1.40
2023-02-01T17:07:07.302Z,1.40
2023-02-01T17:11:13.002Z,1.40
2023-02-01T17:15:18.109Z,1.40
2023-02-01T17:19:26.353Z,1.40
2023-02-01T17:23:31.224Z,1.50
2023-02-01T17:27:45.436Z,1.40
2023-02-01T17:31:52.383Z,1.40
2023-02-01T17:36:01.574Z,1.40
2023-02-01T17:40:05.414Z,1.40
2023-02-01T17:44:11.952Z,1.40
2023-02-01T17:48:17.164Z,1.40
2023-02-01T17:52:20.686Z,1.40
2023-02-01T17:56:25.626Z,1.40
2023-02-01T18:01:18.751Z,1.30
2023-02-01T18:09:50.416Z,1.30
2023-02-01T18:14:19.893Z,1.20
2023-02-01T18:19:02.000Z,1.20
2023-02-01T18:23:06.943Z,1.20
2023-02-01T18:27:16.523Z,1.20
2023-02-01T18:31:23.717Z,1.10
2023-02-01T18:35:39.335Z,1.20
2023-02-01T18:39:44.071Z,1.10
2023-02-01T18:43:57.532Z,1.10
2023-02-01T18:48:01.282Z,1.00
2023-02-01T18:52:06.642Z,1.00
2023-02-01T18:56:13.237Z,0.90
2023-02-01T19:00:33.022Z,0.90
2023-02-01T19:04:36.368Z,1.00
2023-02-01T19:08:41.977Z,1.00
2023-02-01T19:12:46.932Z,1.00
2023-02-01T19:16:51.656Z,1.00
2023-02-01T19:20:55.143Z,0.90
2023-02-01T19:24:59.109Z,0.80
2023-02-01T19:29:04.522Z,0.80
2023-02-01T19:33:13.104Z,0.80
2023-02-01T19:37:16.374Z,0.80
2023-02-01T19:41:21.270Z,0.70
2023-02-01T19:45:26.395Z,0.80
2023-02-01T19:49:54.181Z,0.80
2023-02-01T19:53:57.666Z,0.80
2023-02-01T19:58:02.550Z,0.80
2023-02-01T20:02:06.403Z,0.80
2023-02-01T20:06:39.235Z,0.80
2023-02-01T20:10:44.843Z,0.90
2023-02-01T20:15:03.961Z,0.80
2023-02-01T20:19:10.877Z,0.80
2023-02-01T20:23:14.194Z,0.80
2023-02-01T20:27:18.446Z,0.90
2023-02-01T20:31:25.891Z,0.90
2023-02-01T20:35:30.611Z,1.00
2023-02-01T20:39:38.087Z,1.00
2023-02-01T20:43:41.375Z,1.00
2023-02-01T20:47:44.913Z,1.00
2023-02-01T20:51:49.577Z,1.00
2023-02-01T20:55:59.743Z,1.00
2023-02-01T21:00:03.452Z,1.10
2023-02-01T21:04:29.643Z,1.10
2023-02-01T21:08:35.089Z,1.10
2023-02-01T21:12:40.673Z,1.10
2023-02-01T21:16:44.165Z,1.00
2023-02-01T21:20:48.020Z,1.00
2023-02-01T21:25:43.555Z,1.00
2023-02-01T21:29:48.314Z,1.00
2023-02-01T21:33:54.003Z,0.90
2023-02-01T21:38:20.874Z,0.90
2023-02-01T21:42:46.465Z,0.90
2023-02-01T21:46:51.956Z,0.90
2023-02-01T21:50:57.138Z,1.00
2023-02-01T21:55:01.105Z,1.00
2023-02-01T21:59:05.616Z,1.00
2023-02-01T22:03:11.417Z,0.90
2023-02-01T22:07:19.781Z,0.90
2023-02-01T22:11:40.590Z,0.90
2023-02-01T22:15:49.376Z,0.90
2023-02-01T22:19:54.954Z,0.90
2023-02-01T22:24:01.466Z,1.00
2023-02-01T22:28:31.034Z,1.00
2023-02-01T22:32:50.662Z,0.90
2023-02-01T22:36:56.571Z,0.80
2023-02-01T22:41:05.915Z,0.80
